createdAt,value
2019-02-21T00:00:41.217Z,6.53
2019-02-21T00:01:41.405Z,6.52
2019-02-21T00:02:41.117Z,6.52
2019-02-21T00:03:41.077Z,6.55
2019-02-21T00:04:41.068Z,6.53
2019-02-21T00:05:40.967Z,6.49
2019-02-21T00:06:41.092Z,6.46
2019-02-21T00:07:40.863Z,6.55
2019-02-21T00:08:40.814Z,6.46
2019-02-21T00:09:40.795Z,6.46
2019-02-21T00:10:40.760Z,6.45
2019-02-21T00:11:40.915Z,6.47
2019-02-21T00:12:40.612Z,6.50
2019-02-21T00:13:40.561Z,6.47
2019-02-21T00:14:40.542Z,6.50
2019-02-21T00:15:40.460Z,6.52
2019-02-21T00:16:40.610Z,6.53
2019-02-21T00:17:40.361Z,6.45
2019-02-21T00:18:40.423Z,6.35
2019-02-21T00:19:40.360Z,6.49
2019-02-21T00:20:40.211Z,6.42
2019-02-21T00:21:40.312Z,6.37
2019-02-21T00:22:40.107Z,6.38
2019-02-21T00:23:40.057Z,6.43
2019-02-21T00:24:40.188Z,6.32
2019-02-21T00:25:39.955Z,6.27
2019-02-21T00:26:40.110Z,6.37
2019-02-21T00:27:39.856Z,6.30
2019-02-21T00:28:39.805Z,6.32
2019-02-21T00:29:39.818Z,6.34
2019-02-21T00:30:39.706Z,6.35
2019-02-21T00:31:40.256Z,6.28
2019-02-21T00:32:39.602Z,6.32
2019-02-21T00:33:39.560Z,6.32
2019-02-21T00:34:39.536Z,6.32
2019-02-21T00:35:39.470Z,6.31
2019-02-21T00:36:39.625Z,6.27
2019-02-21T00:37:39.351Z,6.19
2019-02-21T00:38:39.304Z,6.27
2019-02-21T00:39:39.370Z,6.25
2019-02-21T00:40:39.201Z,6.21
2019-02-21T00:41:39.329Z,6.24
2019-02-21T00:42:39.129Z,6.32
2019-02-21T00:43:39.048Z,6.24
2019-02-21T00:44:39.104Z,6.21
2019-02-21T00:45:38.947Z,6.24
2019-02-21T00:46:39.128Z,6.25
2019-02-21T00:47:38.843Z,6.30
2019-02-21T00:48:38.793Z,6.16
2019-02-21T00:49:38.823Z,6.15
2019-02-21T00:50:38.697Z,6.25
2019-02-21T00:51:38.829Z,6.19
2019-02-21T00:52:38.598Z,6.24
2019-02-21T00:53:38.545Z,6.25
2019-02-21T00:54:38.524Z,6.19
2019-02-21T00:55:38.436Z,6.24
2019-02-21T00:56:38.626Z,6.21
2019-02-21T00:57:38.340Z,6.21
2019-02-21T00:58:38.302Z,6.16
2019-02-21T00:59:38.287Z,6.15
2019-02-21T01:00:46.191Z,6.19
2019-02-21T01:01:38.167Z,6.18
2019-02-21T01:02:38.087Z,6.12
2019-02-21T01:03:38.234Z,6.03
2019-02-21T01:04:37.989Z,6.08
2019-02-21T01:05:37.935Z,6.11
2019-02-21T01:06:38.019Z,6.12
2019-02-21T01:07:37.850Z,6.06
2019-02-21T01:08:37.937Z,6.19
2019-02-21T01:09:37.735Z,6.16
2019-02-21T01:10:37.686Z,6.13
2019-02-21T01:11:37.663Z,6.12
2019-02-21T01:12:37.583Z,6.08
2019-02-21T01:13:37.739Z,6.09
2019-02-21T01:14:37.484Z,6.08
2019-02-21T01:15:37.434Z,6.08
2019-02-21T01:16:37.460Z,6.13
2019-02-21T01:17:37.335Z,6.12
2019-02-21T01:18:37.309Z,6.06
2019-02-21T01:19:37.227Z,6.02
2019-02-21T01:20:37.336Z,6.00
2019-02-21T01:21:37.125Z,6.09
2019-02-21T01:22:37.080Z,6.06
2019-02-21T01:23:37.108Z,5.97
2019-02-21T01:24:36.975Z,6.06
2019-02-21T01:25:37.174Z,6.03
2019-02-21T01:26:36.883Z,6.03
2019-02-21T01:27:36.822Z,6.06
2019-02-21T01:28:36.834Z,6.03
2019-02-21T01:29:36.723Z,5.98
2019-02-21T01:30:36.848Z,5.97
2019-02-21T01:31:36.624Z,5.94
2019-02-21T01:32:36.574Z,6.05
2019-02-21T01:33:36.556Z,6.00
2019-02-21T01:34:36.471Z,6.03
2019-02-21T01:35:36.658Z,5.93
2019-02-21T01:36:36.368Z,5.95
2019-02-21T01:37:36.319Z,5.95
2019-02-21T01:38:36.389Z,5.88
2019-02-21T01:39:36.218Z,5.90
2019-02-21T01:40:36.368Z,5.97
2019-02-21T01:41:36.120Z,5.93
2019-02-21T01:42:36.066Z,5.90
2019-02-21T01:43:36.119Z,5.90
2019-02-21T01:44:35.962Z,5.87
2019-02-21T01:45:36.062Z,5.80
2019-02-21T01:46:35.864Z,5.85
2019-02-21T01:47:35.857Z,5.85
2019-02-21T01:48:35.822Z,5.79
2019-02-21T01:49:35.714Z,5.82
2019-02-21T01:50:35.876Z,5.80
2019-02-21T01:51:35.614Z,5.79
2019-02-21T01:52:35.557Z,5.69
2019-02-21T01:53:35.534Z,5.75
2019-02-21T01:54:35.457Z,5.69
2019-02-21T01:55:35.570Z,5.67
2019-02-21T01:56:35.357Z,5.80
2019-02-21T01:57:35.303Z,5.79
2019-02-21T01:58:35.289Z,5.70
2019-02-21T01:59:35.202Z,5.77
2019-02-21T02:00:35.380Z,5.76
2019-02-21T02:01:35.101Z,5.79
2019-02-21T02:02:35.055Z,5.72
2019-02-21T02:03:35.124Z,5.69
2019-02-21T02:04:34.954Z,5.72
2019-02-21T02:05:35.067Z,5.69
2019-02-21T02:06:34.853Z,5.73
2019-02-21T02:07:34.796Z,5.73
2019-02-21T02:08:34.856Z,5.80
2019-02-21T02:09:34.696Z,5.77
2019-02-21T02:10:34.880Z,5.75
2019-02-21T02:11:34.593Z,5.70
2019-02-21T02:12:34.546Z,5.72
2019-02-21T02:13:34.526Z,5.79
2019-02-21T02:14:34.476Z,5.70
2019-02-21T02:15:34.575Z,5.70
2019-02-21T02:16:34.342Z,5.73
2019-02-21T02:17:34.291Z,5.66
2019-02-21T02:18:34.313Z,5.72
2019-02-21T02:19:34.188Z,5.69
2019-02-21T02:20:34.296Z,5.66
2019-02-21T02:21:34.086Z,5.69
2019-02-21T02:22:34.151Z,5.66
2019-02-21T02:23:34.031Z,5.62
2019-02-21T02:24:33.931Z,5.58
2019-02-21T02:25:34.083Z,5.58
2019-02-21T02:26:33.832Z,5.59
2019-02-21T02:27:33.780Z,5.57
2019-02-21T02:28:33.753Z,5.58
2019-02-21T02:29:33.680Z,5.58
2019-02-21T02:30:33.785Z,5.57
2019-02-21T02:31:33.583Z,5.54
2019-02-21T02:32:33.529Z,5.54
2019-02-21T02:33:33.508Z,5.55
2019-02-21T02:34:33.432Z,5.52
2019-02-21T02:35:33.589Z,5.57
2019-02-21T02:36:33.335Z,5.51
2019-02-21T02:37:33.275Z,5.54
2019-02-21T02:38:33.315Z,5.57
2019-02-21T02:39:33.169Z,5.58
2019-02-21T02:40:33.290Z,5.57
2019-02-21T02:41:33.067Z,5.54
2019-02-21T02:42:33.124Z,5.47
2019-02-21T02:43:33.198Z,5.43
2019-02-21T02:44:32.920Z,5.55
2019-02-21T02:45:32.868Z,5.47
2019-02-21T02:46:32.854Z,5.47
2019-02-21T02:47:32.762Z,5.40
2019-02-21T02:48:32.908Z,5.51
2019-02-21T02:49:32.663Z,5.40
2019-02-21T02:50:32.648Z,5.39
2019-02-21T02:51:32.590Z,5.43
2019-02-21T02:52:32.510Z,5.44
2019-02-21T02:53:32.699Z,5.39
2019-02-21T02:54:32.410Z,5.40
2019-02-21T02:55:32.358Z,5.30
2019-02-21T02:56:32.410Z,5.27
2019-02-21T02:57:32.256Z,5.29
2019-02-21T02:58:32.381Z,5.25
2019-02-21T02:59:40.355Z,5.21
2019-02-21T03:00:32.299Z,5.19
2019-02-21T03:01:35.072Z,5.21
2019-02-21T03:02:32.002Z,5.24
2019-02-21T03:03:32.049Z,5.19
2019-02-21T03:04:31.899Z,5.24
2019-02-21T03:05:31.998Z,5.14
2019-02-21T03:06:31.796Z,5.16
2019-02-21T03:07:31.745Z,5.09
2019-02-21T03:08:31.730Z,5.11
2019-02-21T03:09:31.669Z,5.06
2019-02-21T03:10:31.824Z,5.07
2019-02-21T03:11:31.543Z,5.04
2019-02-21T03:12:31.491Z,5.01
2019-02-21T03:13:31.477Z,4.98
2019-02-21T03:14:31.387Z,4.98
2019-02-21T03:15:31.533Z,4.89
2019-02-21T03:16:31.285Z,4.89
2019-02-21T03:17:31.235Z,4.78
2019-02-21T03:18:31.226Z,4.77
2019-02-21T03:19:31.133Z,4.74
2019-02-21T03:20:31.323Z,4.75
2019-02-21T03:21:31.028Z,4.72
2019-02-21T03:22:30.979Z,4.66
2019-02-21T03:23:30.955Z,4.54
2019-02-21T03:24:30.876Z,4.66
2019-02-21T03:25:31.027Z,4.63
2019-02-21T03:26:30.773Z,4.56
2019-02-21T03:27:30.722Z,4.57
2019-02-21T03:28:30.689Z,4.57
2019-02-21T03:29:30.619Z,4.42
2019-02-21T03:30:30.728Z,4.48
2019-02-21T03:31:30.526Z,4.48
2019-02-21T03:32:30.465Z,4.34
2019-02-21T03:33:30.513Z,4.46
2019-02-21T03:34:30.363Z,4.42
2019-02-21T03:35:30.538Z,4.43
2019-02-21T03:36:30.279Z,4.35
2019-02-21T03:37:30.267Z,4.36
2019-02-21T03:38:34.863Z,4.30
2019-02-21T03:39:30.106Z,4.28
2019-02-21T03:40:30.238Z,4.30
2019-02-21T03:41:30.015Z,4.18
2019-02-21T03:42:29.951Z,4.20
2019-02-21T03:43:29.962Z,4.20
2019-02-21T03:44:29.850Z,4.21
2019-02-21T03:45:30.046Z,4.12
2019-02-21T03:46:29.747Z,4.18
2019-02-21T03:47:29.694Z,4.08
2019-02-21T03:48:29.673Z,4.08
2019-02-21T03:49:29.599Z,4.10
2019-02-21T03:50:29.751Z,4.08
2019-02-21T03:51:29.489Z,4.08
2019-02-21T03:52:29.440Z,4.05
2019-02-21T03:53:29.419Z,3.90
2019-02-21T03:54:29.338Z,3.99
2019-02-21T03:55:29.449Z,3.91
2019-02-21T03:56:29.230Z,3.92
2019-02-21T03:57:29.180Z,4.05
2019-02-21T03:58:29.244Z,3.90
2019-02-21T03:59:29.086Z,3.90
2019-02-21T04:00:29.236Z,4.08
2019-02-21T04:01:28.981Z,4.02
2019-02-21T04:02:28.922Z,4.03
2019-02-21T04:03:28.970Z,4.09
2019-02-21T04:04:28.819Z,4.05
2019-02-21T04:05:28.953Z,4.03
2019-02-21T04:06:28.718Z,4.03
2019-02-21T04:07:28.664Z,3.94
2019-02-21T04:08:28.642Z,3.94
2019-02-21T04:09:28.561Z,3.92
2019-02-21T04:10:28.752Z,3.88
2019-02-21T04:11:28.460Z,3.87
2019-02-21T04:12:28.407Z,3.90
2019-02-21T04:13:28.429Z,3.85
2019-02-21T04:14:28.310Z,3.80
2019-02-21T04:15:28.455Z,3.85
2019-02-21T04:16:28.202Z,3.81
2019-02-21T04:17:28.150Z,3.78
2019-02-21T04:18:28.150Z,3.78
2019-02-21T04:19:28.046Z,3.81
2019-02-21T04:20:28.147Z,3.78
2019-02-21T04:21:27.943Z,3.84
2019-02-21T04:22:27.896Z,3.85
2019-02-21T04:23:27.882Z,3.85
2019-02-21T04:24:27.790Z,3.82
2019-02-21T04:25:27.951Z,3.81
2019-02-21T04:26:27.686Z,3.85
2019-02-21T04:27:27.631Z,3.80
2019-02-21T04:28:27.612Z,3.81
2019-02-21T04:29:27.529Z,3.74
2019-02-21T04:30:27.667Z,3.76
2019-02-21T04:31:27.426Z,3.78
2019-02-21T04:32:27.375Z,3.74
2019-02-21T04:33:27.433Z,3.78
2019-02-21T04:34:27.274Z,3.67
2019-02-21T04:35:27.362Z,3.73
2019-02-21T04:36:27.169Z,3.70
2019-02-21T04:37:27.119Z,3.73
2019-02-21T04:38:27.160Z,3.73
2019-02-21T04:39:27.018Z,3.67
2019-02-21T04:40:27.166Z,3.64
2019-02-21T04:41:26.912Z,3.74
2019-02-21T04:42:26.862Z,3.74
2019-02-21T04:43:26.888Z,3.87
2019-02-21T04:44:26.759Z,3.85
2019-02-21T04:45:26.875Z,3.84
2019-02-21T04:46:26.656Z,3.88
2019-02-21T04:47:26.608Z,3.88
2019-02-21T04:48:26.585Z,3.88
2019-02-21T04:49:26.497Z,3.99
2019-02-21T04:50:26.672Z,3.99
2019-02-21T04:51:26.402Z,4.03
2019-02-21T04:52:26.348Z,4.09
2019-02-21T04:53:26.343Z,4.09
2019-02-21T04:54:26.241Z,4.10
2019-02-21T04:55:26.383Z,4.09
2019-02-21T04:56:26.139Z,4.08
2019-02-21T04:57:26.087Z,4.09
2019-02-21T04:58:26.070Z,4.05
2019-02-21T04:59:25.987Z,4.08
2019-02-21T05:00:26.082Z,4.08
2019-02-21T05:01:25.881Z,4.08
2019-02-21T05:02:28.889Z,4.08
2019-02-21T05:03:25.790Z,4.05
2019-02-21T05:04:25.733Z,4.12
2019-02-21T05:05:25.903Z,4.00
2019-02-21T05:06:25.623Z,3.99
2019-02-21T05:07:25.573Z,3.94
2019-02-21T05:08:25.623Z,3.88
2019-02-21T05:09:27.149Z,3.80
2019-02-21T05:10:25.588Z,3.82
2019-02-21T05:11:25.366Z,3.85
2019-02-21T05:12:25.315Z,3.84
2019-02-21T05:13:25.348Z,3.74
2019-02-21T05:14:25.244Z,3.84
2019-02-21T05:15:25.408Z,3.70
2019-02-21T05:16:25.111Z,3.64
2019-02-21T05:17:25.057Z,3.70
2019-02-21T05:18:25.075Z,3.63
2019-02-21T05:19:24.957Z,3.56
2019-02-21T05:20:25.093Z,3.62
2019-02-21T05:21:24.853Z,3.56
2019-02-21T05:22:24.800Z,3.52
2019-02-21T05:23:24.780Z,3.60
2019-02-21T05:24:24.698Z,3.52
2019-02-21T05:25:24.815Z,3.49
2019-02-21T05:26:24.592Z,3.42
2019-02-21T05:27:24.539Z,3.33
2019-02-21T05:28:24.514Z,3.32
2019-02-21T05:29:24.441Z,3.27
2019-02-21T05:30:24.600Z,3.29
2019-02-21T05:31:24.334Z,3.27
2019-02-21T05:32:24.282Z,3.30
2019-02-21T05:33:24.262Z,3.37
2019-02-21T05:34:24.185Z,3.35
2019-02-21T05:35:24.310Z,3.35
2019-02-21T05:36:24.075Z,3.36
2019-02-21T05:37:24.043Z,3.35
2019-02-21T05:38:24.086Z,3.33
2019-02-21T05:39:23.920Z,3.33
2019-02-21T05:40:24.115Z,3.30
2019-02-21T05:41:23.818Z,3.32
2019-02-21T05:42:23.766Z,3.26
2019-02-21T05:43:23.746Z,3.22
2019-02-21T05:44:23.661Z,3.23
2019-02-21T05:45:23.811Z,3.23
2019-02-21T05:46:23.559Z,3.17
2019-02-21T05:47:23.505Z,3.17
2019-02-21T05:48:23.537Z,3.14
2019-02-21T05:49:23.401Z,3.14
2019-02-21T05:50:23.515Z,3.11
2019-02-21T05:51:23.296Z,3.12
2019-02-21T05:52:23.246Z,3.09
2019-02-21T05:53:23.263Z,3.09
2019-02-21T05:54:23.142Z,2.99
2019-02-21T05:55:23.319Z,3.00
2019-02-21T05:56:23.042Z,3.07
2019-02-21T05:57:22.988Z,3.09
2019-02-21T05:58:22.961Z,2.96
2019-02-21T05:59:22.879Z,3.12
2019-02-21T06:00:23.021Z,3.15
2019-02-21T06:01:22.780Z,3.11
2019-02-21T06:02:22.724Z,3.17
2019-02-21T06:03:22.706Z,3.20
2019-02-21T06:04:22.621Z,3.09
2019-02-21T06:05:22.724Z,3.05
2019-02-21T06:06:22.520Z,2.97
2019-02-21T06:07:22.465Z,3.09
2019-02-21T06:08:22.444Z,3.02
2019-02-21T06:09:22.362Z,2.99
2019-02-21T06:10:22.533Z,3.04
2019-02-21T06:11:22.257Z,3.02
2019-02-21T06:12:33.217Z,3.00
2019-02-21T06:13:22.165Z,3.05
2019-02-21T06:14:22.100Z,2.86
2019-02-21T06:15:22.230Z,2.84
2019-02-21T06:16:22.000Z,2.90
2019-02-21T06:17:21.959Z,2.90
2019-02-21T06:18:21.904Z,2.90
2019-02-21T06:19:21.851Z,2.89
2019-02-21T06:20:21.787Z,2.89
2019-02-21T06:21:21.737Z,2.82
2019-02-21T06:22:21.694Z,2.84
2019-02-21T06:23:21.638Z,2.87
2019-02-21T06:24:21.589Z,2.84
2019-02-21T06:25:21.534Z,2.87
2019-02-21T06:26:21.480Z,2.84
2019-02-21T06:27:21.424Z,2.84
2019-02-21T06:28:21.379Z,2.81
2019-02-21T06:29:22.557Z,2.86
2019-02-21T06:30:21.273Z,2.86
2019-02-21T06:31:21.376Z,2.99
2019-02-21T06:32:21.164Z,2.91
2019-02-21T06:33:21.117Z,2.89
2019-02-21T06:34:21.069Z,2.86
2019-02-21T06:35:21.009Z,3.00
2019-02-21T06:36:21.154Z,3.00
2019-02-21T06:37:20.906Z,3.04
2019-02-21T06:38:20.853Z,3.02
2019-02-21T06:39:20.795Z,2.99
2019-02-21T06:40:20.745Z,3.04
2019-02-21T06:41:20.698Z,2.97
2019-02-21T06:42:20.647Z,2.94
2019-02-21T06:46:36.755Z,2.93
2019-02-21T06:47:36.580Z,3.00
2019-02-21T06:49:32.778Z,3.14
2019-02-21T06:50:29.794Z,3.12
2019-02-21T06:51:29.741Z,3.15
2019-02-21T06:52:29.684Z,3.12
2019-02-21T06:53:29.857Z,3.20
2019-02-21T06:54:29.584Z,3.15
2019-02-21T06:55:29.533Z,3.17
2019-02-21T06:56:29.488Z,3.12
2019-02-21T06:57:29.431Z,3.14
2019-02-21T06:58:29.378Z,3.26
2019-02-21T06:59:29.323Z,3.23
2019-02-21T07:00:29.288Z,3.22
2019-02-21T07:01:29.703Z,3.33
2019-02-21T07:02:29.174Z,3.35
2019-02-21T07:03:29.187Z,3.41
2019-02-21T07:04:29.068Z,3.42
2019-02-21T07:05:29.017Z,3.51
2019-02-21T07:06:32.229Z,3.49
2019-02-21T07:07:28.933Z,3.52
2019-02-21T07:08:28.874Z,3.66
2019-02-21T07:09:28.812Z,3.62
2019-02-21T07:10:28.778Z,3.74
2019-02-21T07:11:28.716Z,3.78
2019-02-21T07:12:28.877Z,3.78
2019-02-21T07:13:28.660Z,3.84
2019-02-21T07:14:28.585Z,3.92
2019-02-21T07:15:28.500Z,4.03
2019-02-21T07:16:28.469Z,4.03
2019-02-21T07:17:28.610Z,4.09
2019-02-21T07:18:29.051Z,4.08
2019-02-21T07:19:28.342Z,4.13
2019-02-21T07:20:28.306Z,4.21
2019-02-21T07:21:28.238Z,4.18
2019-02-21T07:22:28.149Z,4.24
2019-02-21T07:23:30.978Z,4.24
2019-02-21T07:24:28.083Z,4.31
2019-02-21T07:25:28.019Z,4.38
2019-02-21T07:26:27.935Z,4.36
2019-02-21T07:27:28.085Z,4.46
2019-02-21T07:28:27.999Z,4.43
2019-02-21T07:29:27.816Z,4.60
2019-02-21T07:30:27.766Z,4.53
2019-02-21T07:31:29.161Z,4.63
2019-02-21T07:32:27.646Z,4.72
2019-02-21T07:33:28.943Z,4.74
2019-02-21T07:34:30.123Z,4.72
2019-02-21T07:35:27.487Z,4.79
2019-02-21T07:36:28.021Z,4.85
2019-02-21T07:37:27.373Z,4.91
2019-02-21T07:38:27.325Z,4.88
2019-02-21T07:39:35.634Z,4.96
2019-02-21T07:40:27.490Z,5.07
2019-02-21T07:41:27.198Z,5.14
2019-02-21T07:42:27.120Z,5.22
2019-02-21T07:43:27.077Z,5.27
2019-02-21T07:44:27.016Z,5.34
2019-02-21T07:45:26.994Z,5.33
2019-02-21T07:46:26.923Z,5.39
2019-02-21T07:47:26.864Z,5.36
2019-02-21T07:48:26.825Z,5.48
2019-02-21T07:49:26.770Z,5.40
2019-02-21T07:50:26.711Z,5.54
2019-02-21T07:51:26.666Z,5.59
2019-02-21T07:52:26.611Z,5.72
2019-02-21T07:53:26.563Z,5.79
2019-02-21T07:54:26.507Z,5.88
2019-02-21T07:55:26.833Z,5.90
2019-02-21T07:56:26.408Z,5.97
2019-02-21T07:57:26.362Z,5.97
2019-02-21T07:58:26.312Z,5.98
2019-02-21T07:59:26.255Z,6.12
2019-02-21T08:00:26.205Z,6.06
2019-02-21T08:01:26.887Z,6.18
2019-02-21T08:02:26.124Z,6.19
2019-02-21T08:03:30.349Z,6.43
2019-02-21T08:04:26.008Z,6.45
2019-02-21T08:05:25.959Z,6.37
2019-02-21T08:06:25.905Z,6.40
2019-02-21T08:07:26.454Z,6.50
2019-02-21T08:08:25.808Z,6.53
2019-02-21T08:09:27.767Z,6.67
2019-02-21T08:10:33.211Z,6.86
2019-02-21T08:11:25.672Z,6.88
2019-02-21T08:12:25.621Z,6.99
2019-02-21T08:13:25.553Z,7.13
2019-02-21T08:14:25.516Z,7.31
2019-02-21T08:15:27.528Z,7.43
2019-02-21T08:16:25.405Z,7.49
2019-02-21T08:17:27.832Z,7.66
2019-02-21T08:18:25.487Z,7.80
2019-02-21T08:19:25.255Z,7.71
2019-02-21T08:20:33.561Z,7.69
2019-02-21T08:21:25.191Z,7.60
2019-02-21T08:22:25.112Z,7.54
2019-02-21T08:23:25.062Z,7.31
2019-02-21T08:24:25.009Z,7.25
2019-02-21T08:25:24.961Z,7.10
2019-02-21T08:26:24.911Z,7.04
2019-02-21T08:27:24.870Z,7.00
2019-02-21T08:28:24.812Z,6.99
2019-02-21T08:29:24.762Z,6.99
2019-02-21T08:30:24.716Z,6.85
2019-02-21T08:31:24.657Z,7.00
2019-02-21T08:32:24.616Z,6.99
2019-02-21T08:33:24.565Z,7.08
2019-02-21T08:34:24.508Z,7.06
2019-02-21T08:35:24.457Z,6.99
2019-02-21T08:36:24.408Z,7.06
2019-02-21T08:37:24.370Z,7.04
2019-02-21T08:38:24.304Z,7.08
2019-02-21T08:39:24.267Z,7.25
2019-02-21T08:40:25.134Z,7.33
2019-02-21T08:41:25.827Z,7.29
2019-02-21T08:42:24.118Z,7.13
2019-02-21T08:43:24.090Z,7.06
2019-02-21T08:44:24.031Z,7.10
2019-02-21T08:45:23.961Z,7.10
2019-02-21T08:46:23.921Z,7.10
2019-02-21T08:47:23.864Z,7.21
2019-02-21T08:48:23.844Z,7.26
2019-02-21T08:49:23.765Z,7.37
2019-02-21T08:50:23.782Z,7.55
2019-02-21T08:51:23.718Z,7.68
2019-02-21T08:52:23.670Z,7.86
2019-02-21T08:53:23.624Z,7.78
2019-02-21T08:54:23.555Z,7.83
2019-02-21T08:55:23.476Z,7.81
2019-02-21T08:56:23.540Z,7.94
2019-02-21T08:57:23.445Z,8.09
2019-02-21T08:58:24.984Z,8.12
2019-02-21T08:59:23.630Z,8.13
2019-02-21T09:01:23.245Z,8.23
2019-02-21T09:02:24.148Z,8.17
2019-02-21T09:03:23.207Z,8.21
2019-02-21T09:04:27.308Z,8.23
2019-02-21T09:05:23.096Z,8.13
2019-02-21T09:06:24.660Z,8.10
2019-02-21T09:07:46.169Z,8.04
2019-02-21T09:08:32.998Z,8.10
2019-02-21T09:09:23.273Z,8.02
2019-02-21T09:10:22.915Z,7.95
2019-02-21T09:11:22.980Z,7.92
2019-02-21T09:12:22.920Z,7.88
2019-02-21T09:13:43.877Z,7.95
2019-02-21T09:14:23.305Z,8.05
2019-02-21T09:15:23.158Z,8.05
2019-02-21T09:16:22.532Z,8.02
2019-02-21T09:17:22.442Z,8.14
2019-02-21T09:18:22.413Z,8.24
2019-02-21T09:19:43.293Z,8.29
2019-02-21T09:20:22.242Z,8.34
2019-02-21T09:21:22.198Z,8.57
2019-02-21T09:22:22.152Z,8.68
2019-02-21T09:23:22.107Z,8.95
2019-02-21T09:24:37.867Z,9.06
2019-02-21T09:25:43.007Z,9.15
2019-02-21T09:26:21.956Z,9.33
2019-02-21T09:27:21.919Z,9.32
2019-02-21T09:28:21.853Z,9.27
2019-02-21T09:29:21.812Z,9.40
2019-02-21T09:30:21.757Z,9.51
2019-02-21T09:31:42.701Z,9.41
2019-02-21T09:32:21.661Z,9.66
2019-02-21T09:33:21.842Z,9.67
2019-02-21T09:34:21.662Z,9.60
2019-02-21T09:35:21.515Z,9.57
2019-02-21T09:36:21.469Z,9.73
2019-02-21T09:37:42.412Z,9.90
2019-02-21T09:38:21.386Z,10.10
2019-02-21T09:39:21.531Z,10.01
2019-02-21T09:40:21.266Z,10.26
2019-02-21T09:41:57.061Z,10.30
2019-02-21T09:42:42.156Z,9.99
2019-02-21T09:43:21.122Z,10.03
2019-02-21T09:44:21.165Z,10.01
2019-02-21T09:45:21.026Z,9.98
2019-02-21T09:46:20.978Z,10.06
2019-02-21T09:47:20.930Z,10.05
2019-02-21T09:48:41.901Z,10.05
2019-02-21T09:49:20.840Z,10.01
2019-02-21T09:50:20.784Z,10.06
2019-02-21T09:51:20.736Z,10.09
2019-02-21T09:52:20.710Z,10.23
2019-02-21T09:53:20.655Z,10.28
2019-02-21T09:54:41.747Z,10.36
2019-02-21T09:55:20.546Z,10.35
2019-02-21T09:56:29.894Z,10.38
2019-02-21T09:57:20.452Z,10.45
2019-02-21T09:58:20.470Z,10.35
2019-02-21T09:59:20.352Z,10.34
2019-02-21T10:00:41.311Z,10.35
2019-02-21T10:01:20.329Z,10.31
2019-02-21T10:02:22.965Z,10.42
2019-02-21T10:03:20.177Z,10.49
2019-02-21T10:04:20.342Z,10.39
2019-02-21T10:05:20.107Z,10.30
2019-02-21T10:06:41.051Z,10.23
2019-02-21T10:07:20.020Z,10.30
2019-02-21T10:08:21.954Z,10.36
2019-02-21T10:09:19.886Z,10.28
2019-02-21T10:10:19.837Z,10.21
2019-02-21T10:11:19.777Z,10.23
2019-02-21T10:12:40.726Z,10.36
2019-02-21T10:13:19.724Z,10.49
2019-02-21T10:14:21.468Z,10.52
2019-02-21T10:15:19.624Z,10.58
2019-02-21T10:16:19.573Z,10.55
2019-02-21T10:17:19.541Z,10.67
2019-02-21T10:18:40.475Z,10.68
2019-02-21T10:19:19.384Z,10.75
2019-02-21T10:20:19.330Z,10.80
2019-02-21T10:21:19.289Z,10.93
2019-02-21T10:22:19.256Z,10.76
2019-02-21T10:23:19.195Z,10.82
2019-02-21T10:24:40.137Z,10.80
2019-02-21T10:25:19.102Z,10.79
2019-02-21T10:26:19.066Z,10.82
2019-02-21T10:27:19.002Z,10.83
2019-02-21T10:28:19.025Z,10.67
2019-02-21T10:29:18.908Z,10.75
2019-02-21T10:30:39.851Z,10.75
2019-02-21T10:31:18.807Z,10.76
2019-02-21T10:32:18.773Z,10.75
2019-02-21T10:33:18.726Z,10.76
2019-02-21T10:34:18.664Z,10.79
2019-02-21T10:35:18.639Z,10.90
2019-02-21T10:36:39.551Z,10.93
2019-02-21T10:37:18.515Z,10.94
2019-02-21T10:38:18.456Z,11.08
2019-02-21T10:39:18.407Z,11.12
2019-02-21T10:40:18.368Z,11.08
2019-02-21T10:41:18.312Z,11.13
2019-02-21T10:42:39.256Z,11.20
2019-02-21T10:43:18.216Z,11.18
2019-02-21T10:44:18.186Z,11.27
2019-02-21T10:45:18.120Z,11.38
2019-02-21T10:46:18.075Z,11.49
2019-02-21T10:47:18.185Z,11.51
2019-02-21T10:48:38.965Z,11.64
2019-02-21T10:49:17.926Z,11.64
2019-02-21T10:50:17.888Z,11.70
2019-02-21T10:51:17.832Z,11.88
2019-02-21T10:52:17.787Z,11.79
2019-02-21T10:53:17.735Z,11.69
2019-02-21T10:54:38.732Z,11.67
2019-02-21T10:55:17.641Z,11.62
2019-02-21T10:56:17.597Z,11.61
2019-02-21T10:57:17.548Z,11.70
2019-02-21T10:58:17.511Z,11.87
2019-02-21T10:59:17.536Z,11.85
2019-02-21T11:00:38.394Z,11.82
2019-02-21T11:01:17.354Z,11.77
2019-02-21T11:02:17.494Z,11.89
2019-02-21T11:03:17.276Z,11.74
2019-02-21T11:04:17.221Z,11.82
2019-02-21T11:05:17.172Z,11.80
2019-02-21T11:06:38.110Z,11.82
2019-02-21T11:07:17.072Z,11.80
2019-02-21T11:08:17.039Z,11.79
2019-02-21T11:09:16.979Z,11.93
2019-02-21T11:10:19.023Z,12.14
2019-02-21T11:11:17.293Z,12.17
2019-02-21T11:12:37.827Z,12.36
2019-02-21T11:13:16.775Z,12.28
2019-02-21T11:14:16.741Z,12.25
2019-02-21T11:15:16.684Z,12.17
2019-02-21T11:16:16.634Z,12.17
2019-02-21T11:17:16.602Z,12.15
2019-02-21T11:18:37.551Z,12.08
2019-02-21T11:19:16.493Z,12.17
2019-02-21T11:20:16.461Z,12.21
2019-02-21T11:21:16.407Z,12.21
2019-02-21T11:22:16.353Z,12.17
2019-02-21T11:23:16.309Z,12.17
2019-02-21T11:24:37.307Z,12.22
2019-02-21T11:25:16.233Z,12.21
2019-02-21T11:26:16.161Z,12.11
2019-02-21T11:27:16.114Z,12.14
2019-02-21T11:28:16.070Z,12.21
2019-02-21T11:29:16.030Z,12.30
2019-02-21T11:30:36.968Z,12.15
2019-02-21T11:31:15.925Z,12.29
2019-02-21T11:32:15.876Z,12.28
2019-02-21T11:33:15.831Z,12.40
2019-02-21T11:34:15.789Z,12.48
2019-02-21T11:35:15.747Z,12.54
2019-02-21T11:36:36.680Z,12.58
2019-02-21T11:37:15.648Z,12.58
2019-02-21T11:38:15.587Z,12.58
2019-02-21T11:39:15.559Z,12.65
2019-02-21T11:40:15.497Z,12.59
2019-02-21T11:41:15.455Z,12.55
2019-02-21T11:42:36.393Z,12.54
2019-02-21T11:43:15.357Z,12.40
2019-02-21T11:44:15.312Z,12.43
2019-02-21T11:45:15.261Z,12.46
2019-02-21T11:46:15.220Z,12.41
2019-02-21T11:47:15.173Z,12.59
2019-02-21T11:48:36.115Z,12.51
2019-02-21T11:49:15.093Z,12.40
2019-02-21T11:50:15.096Z,12.54
2019-02-21T11:51:14.981Z,12.61
2019-02-21T11:52:14.929Z,12.62
2019-02-21T11:53:14.902Z,12.76
2019-02-21T11:54:35.900Z,12.72
2019-02-21T11:55:14.816Z,12.69
2019-02-21T11:56:15.721Z,12.72
2019-02-21T11:57:14.701Z,12.71
2019-02-21T11:58:14.686Z,12.72
2019-02-21T11:59:16.155Z,12.87
2019-02-21T12:00:35.551Z,12.87
2019-02-21T12:01:14.510Z,12.77
2019-02-21T12:02:14.464Z,12.68
2019-02-21T12:03:14.417Z,12.66
2019-02-21T12:04:14.365Z,12.62
2019-02-21T12:05:17.393Z,12.40
2019-02-21T12:06:35.256Z,12.46
2019-02-21T12:07:14.259Z,12.44
2019-02-21T12:08:14.173Z,12.43
2019-02-21T12:09:14.122Z,12.29
2019-02-21T12:10:14.088Z,12.26
2019-02-21T12:11:14.033Z,12.32
2019-02-21T12:12:35.073Z,12.21
2019-02-21T12:13:13.948Z,12.14
2019-02-21T12:14:13.919Z,12.18
2019-02-21T12:15:13.896Z,12.29
2019-02-21T12:16:13.803Z,12.21
2019-02-21T12:17:13.753Z,12.26
2019-02-21T12:18:34.700Z,12.26
2019-02-21T12:19:13.659Z,12.41
2019-02-21T12:20:13.808Z,12.41
2019-02-21T12:21:13.570Z,12.41
2019-02-21T12:22:13.510Z,12.38
2019-02-21T12:23:13.469Z,12.36
2019-02-21T12:24:34.700Z,12.44
2019-02-21T12:25:13.391Z,12.51
2019-02-21T12:26:13.331Z,12.58
2019-02-21T12:27:13.306Z,12.62
2019-02-21T12:28:13.228Z,12.62
2019-02-21T12:29:15.109Z,12.53
2019-02-21T12:30:34.121Z,12.66
2019-02-21T12:31:13.096Z,12.58
2019-02-21T12:32:13.034Z,12.65
2019-02-21T12:33:12.984Z,12.68
2019-02-21T12:34:12.953Z,12.71
2019-02-21T12:35:12.894Z,12.84
2019-02-21T12:36:33.853Z,12.86
2019-02-21T12:37:12.807Z,12.84
2019-02-21T12:38:13.030Z,12.83
2019-02-21T12:39:12.709Z,12.83
2019-02-21T12:40:12.649Z,12.96
2019-02-21T12:41:12.623Z,12.87
2019-02-21T12:42:33.817Z,13.16
2019-02-21T12:43:12.509Z,13.16
2019-02-21T12:44:12.468Z,13.30
2019-02-21T12:45:12.610Z,13.06
2019-02-21T12:46:12.379Z,13.02
2019-02-21T12:47:12.319Z,13.02
2019-02-21T12:48:33.277Z,13.13
2019-02-21T12:49:12.251Z,13.35
2019-02-21T12:50:12.431Z,13.39
2019-02-21T12:51:12.125Z,13.53
2019-02-21T12:52:12.085Z,13.53
2019-02-21T12:53:12.077Z,13.58
2019-02-21T12:54:33.112Z,13.65
2019-02-21T12:55:11.950Z,13.72
2019-02-21T12:56:11.897Z,13.82
2019-02-21T12:57:12.125Z,13.76
2019-02-21T12:58:11.820Z,13.79
2019-02-21T12:59:11.753Z,13.91
2019-02-21T13:00:32.741Z,13.85
2019-02-21T13:01:11.665Z,13.68
2019-02-21T13:02:11.655Z,13.54
2019-02-21T13:03:11.578Z,13.47
2019-02-21T13:04:11.748Z,13.35
2019-02-21T13:05:11.480Z,13.36
2019-02-21T13:06:32.418Z,13.45
2019-02-21T13:07:11.382Z,13.49
2019-02-21T13:08:11.337Z,13.53
2019-02-21T13:09:11.301Z,13.67
2019-02-21T13:10:11.235Z,13.71
2019-02-21T13:11:11.192Z,13.54
2019-02-21T13:12:32.323Z,13.46
2019-02-21T13:13:11.098Z,13.47
2019-02-21T13:14:11.120Z,13.55
2019-02-21T13:15:11.233Z,13.54
2019-02-21T13:16:10.952Z,13.57